sensor_id;sensor_type;location;lat;lon;timestamp;pressure;altitude;pressure_sealevel;temperature;humidity
26531;BME280;14201;43.188;24.160;2022-10-01T00:01:01;99873.06;;;17.28;72.17
26531;BME280;14201;43.188;24.160;2022-10-01T00:03:29;99878.28;;;17.27;72.37
26531;BME280;14201;43.188;24.160;2022-10-01T00:06:09;99876.53;;;17.26;72.54
26531;BME280;14201;43.188;24.160;2022-10-01T00:08:37;99886.13;;;17.22;72.52
26531;BME280;14201;43.188;24.160;2022-10-01T00:11:11;99884.34;;;17.21;73.30
26531;BME280;14201;43.188;24.160;2022-10-01T00:13:39;99883.25;;;17.11;73.22
26531;BME280;14201;43.188;24.160;2022-10-01T00:16:11;99881.50;;;17.10;72.44
26531;BME280;14201;43.188;24.160;2022-10-01T00:18:38;99876.47;;;16.80;73.46
26531;BME280;14201;43.188;24.160;2022-10-01T00:21:06;99871.28;;;16.82;73.19
26531;BME280;14201;43.188;24.160;2022-10-01T00:23:32;99873.06;;;16.84;73.46
26531;BME280;14201;43.188;24.160;2022-10-01T00:26:07;99882.06;;;16.96;73.27
26531;BME280;14201;43.188;24.160;2022-10-01T00:28:33;99877.72;;;16.98;73.59
26531;BME280;14201;43.188;24.160;2022-10-01T00:30:59;99873.47;;;17.03;73.60
26531;BME280;14201;43.188;24.160;2022-10-01T00:33:24;99861.97;;;16.99;73.51
26531;BME280;14201;43.188;24.160;2022-10-01T00:35:53;99863.78;;;17.00;73.35
26531;BME280;14201;43.188;24.160;2022-10-01T00:38:18;99852.41;;;17.03;73.48
26531;BME280;14201;43.188;24.160;2022-10-01T00:40:44;99846.34;;;17.07;73.23
26531;BME280;14201;43.188;24.160;2022-10-01T00:43:24;99845.47;;;17.06;73.90
26531;BME280;14201;43.188;24.160;2022-10-01T00:45:51;99844.59;;;17.07;72.50
26531;BME280;14201;43.188;24.160;2022-10-01T00:48:20;99844.69;;;17.13;71.72
26531;BME280;14201;43.188;24.160;2022-10-01T00:50:47;99835.03;;;17.12;72.33
26531;BME280;14201;43.188;24.160;2022-10-01T00:53:15;99836.69;;;17.07;71.41
26531;BME280;14201;43.188;24.160;2022-10-01T00:55:46;99832.94;;;16.95;72.42
26531;BME280;14201;43.188;24.160;2022-10-01T00:58:14;99840.09;;;17.02;72.47
26531;BME280;14201;43.188;24.160;2022-10-01T01:00:41;99849.59;;;16.93;72.75
26531;BME280;14201;43.188;24.160;2022-10-01T01:03:08;99856.53;;;16.90;72.99
26531;BME280;14201;43.188;24.160;2022-10-01T01:05:35;99861.91;;;16.95;73.12
26531;BME280;14201;43.188;24.160;2022-10-01T01:08:01;99873.41;;;16.60;73.65
26531;BME280;14201;43.188;24.160;2022-10-01T01:10:50;99869.88;;;16.58;73.78
26531;BME280;14201;43.188;24.160;2022-10-01T01:13:36;99868.78;;;16.48;71.57
26531;BME280;14201;43.188;24.160;2022-10-01T01:16:08;99860.19;;;15.81;75.91
26531;BME280;14201;43.188;24.160;2022-10-01T01:18:50;99854.13;;;15.82;76.66
26531;BME280;14201;43.188;24.160;2022-10-01T01:29:38;99864.44;;;16.12;76.27
26531;BME280;14201;43.188;24.160;2022-10-01T01:32:23;99860.16;;;16.16;77.25
26531;BME280;14201;43.188;24.160;2022-10-01T01:34:51;99848.06;;;16.23;77.48
26531;BME280;14201;43.188;24.160;2022-10-01T01:37:22;99845.47;;;16.26;72.23
26531;BME280;14201;43.188;24.160;2022-10-01T01:39:51;99847.06;;;16.18;72.48
26531;BME280;14201;43.188;24.160;2022-10-01T01:42:33;99837.50;;;16.21;73.09
26531;BME280;14201;43.188;24.160;2022-10-01T01:45:05;99829.59;;;16.20;74.29
26531;BME280;14201;43.188;24.160;2022-10-01T01:47:34;99840.09;;;16.20;74.38
26531;BME280;14201;43.188;24.160;2022-10-01T01:50:01;99820.50;;;16.05;75.00
26531;BME280;14201;43.188;24.160;2022-10-01T01:52:28;99834.78;;;16.18;75.10
26531;BME280;14201;43.188;24.160;2022-10-01T01:54:55;99838.28;;;16.17;75.35
26531;BME280;14201;43.188;24.160;2022-10-01T01:57:22;99838.38;;;16.22;75.19
26531;BME280;14201;43.188;24.160;2022-10-01T01:59:48;99847.00;;;16.16;71.21
26531;BME280;14201;43.188;24.160;2022-10-01T02:02:18;99849.25;;;15.99;70.76
26531;BME280;14201;43.188;24.160;2022-10-01T02:04:54;99849.97;;;15.92;71.71
26531;BME280;14201;43.188;24.160;2022-10-01T02:10:43;99855.00;;;15.83;74.19
26531;BME280;14201;43.188;24.160;2022-10-01T02:14:05;99848.91;;;15.85;74.87
26531;BME280;14201;43.188;24.160;2022-10-01T02:16:50;99860.50;;;15.93;75.55
26531;BME280;14201;43.188;24.160;2022-10-01T02:19:45;99849.88;;;15.89;76.13
26531;BME280;14201;43.188;24.160;2022-10-01T02:22:32;99848.81;;;15.81;76.36
26531;BME280;14201;43.188;24.160;2022-10-01T02:25:02;99853.28;;;15.85;76.53
26531;BME280;14201;43.188;24.160;2022-10-01T02:27:33;99856.75;;;15.84;76.50
26531;BME280;14201;43.188;24.160;2022-10-01T02:30:04;99847.22;;;15.87;77.24
26531;BME280;14201;43.188;24.160;2022-10-01T02:32:34;99844.78;;;15.95;77.30
26531;BME280;14201;43.188;24.160;2022-10-01T02:35:04;99844.84;;;15.98;76.91
26531;BME280;14201;43.188;24.160;2022-10-01T02:37:32;99846.66;;;16.01;77.06
26531;BME280;14201;43.188;24.160;2022-10-01T02:40:00;99853.53;;;15.94;74.32
26531;BME280;14201;43.188;24.160;2022-10-01T02:42:28;99855.63;;;15.74;71.78
26531;BME280;14201;43.188;24.160;2022-10-01T02:44:57;99844.16;;;15.70;72.62
26531;BME280;14201;43.188;24.160;2022-10-01T02:47:34;99858.50;;;15.83;75.30
26531;BME280;14201;43.188;24.160;2022-10-01T02:50:03;99858.63;;;15.88;76.44
26531;BME280;14201;43.188;24.160;2022-10-01T02:52:48;99868.09;;;15.81;76.85
26531;BME280;14201;43.188;24.160;2022-10-01T02:55:20;99872.19;;;15.71;76.14
26531;BME280;14201;43.188;24.160;2022-10-01T02:57:50;99882.63;;;15.68;75.42
26531;BME280;14201;43.188;24.160;2022-10-01T03:00:17;99889.66;;;15.36;77.28
26531;BME280;14201;43.188;24.160;2022-10-01T03:02:46;99895.56;;;15.29;77.77
26531;BME280;14201;43.188;24.160;2022-10-01T03:05:13;99887.38;;;15.16;78.61
26531;BME280;14201;43.188;24.160;2022-10-01T03:07:39;99879.34;;;15.12;78.83
26531;BME280;14201;43.188;24.160;2022-10-01T03:10:07;99890.00;;;15.16;78.68
26531;BME280;14201;43.188;24.160;2022-10-01T03:12:33;99885.63;;;15.17;79.67
26531;BME280;14201;43.188;24.160;2022-10-01T03:14:59;99876.63;;;15.07;81.21
26531;BME280;14201;43.188;24.160;2022-10-01T03:17:25;99881.06;;;15.10;81.48
26531;BME280;14201;43.188;24.160;2022-10-01T03:19:51;99867.25;;;15.17;81.53
26531;BME280;14201;43.188;24.160;2022-10-01T03:22:18;99880.59;;;15.25;81.48
26531;BME280;14201;43.188;24.160;2022-10-01T03:24:50;99871.84;;;15.24;81.57
26531;BME280;14201;43.188;24.160;2022-10-01T03:27:17;99880.97;;;15.39;81.51
26531;BME280;14201;43.188;24.160;2022-10-01T03:29:43;99879.41;;;15.47;80.75
26531;BME280;14201;43.188;24.160;2022-10-01T03:32:10;99876.06;;;15.52;80.36
26531;BME280;14201;43.188;24.160;2022-10-01T03:34:36;99873.53;;;15.55;80.61
26531;BME280;14201;43.188;24.160;2022-10-01T03:37:02;99880.69;;;15.61;80.48
26531;BME280;14201;43.188;24.160;2022-10-01T03:39:29;99880.75;;;15.64;80.43
26531;BME280;14201;43.188;24.160;2022-10-01T03:41:54;99879.31;;;15.75;79.53
26531;BME280;14201;43.188;24.160;2022-10-01T03:44:20;99881.50;;;15.59;80.07
26531;BME280;14201;43.188;24.160;2022-10-01T03:46:46;99882.50;;;15.64;79.29
26531;BME280;14201;43.188;24.160;2022-10-01T03:49:12;99886.19;;;15.70;78.51
26531;BME280;14201;43.188;24.160;2022-10-01T03:51:38;99890.75;;;15.78;76.32
26531;BME280;14201;43.188;24.160;2022-10-01T03:54:05;99885.25;;;15.68;77.89
26531;BME280;14201;43.188;24.160;2022-10-01T03:56:31;99865.66;;;15.55;79.01
26531;BME280;14201;43.188;24.160;2022-10-01T03:58:57;99898.25;;;15.64;79.61
26531;BME280;14201;43.188;24.160;2022-10-01T04:01:23;99901.84;;;15.67;79.86
26531;BME280;14201;43.188;24.160;2022-10-01T04:03:50;99904.56;;;15.72;78.46
26531;BME280;14201;43.188;24.160;2022-10-01T04:06:16;99900.06;;;15.66;79.14
26531;BME280;14201;43.188;24.160;2022-10-01T04:08:42;99897.31;;;15.62;79.82
26531;BME280;14201;43.188;24.160;2022-10-01T04:11:08;99888.75;;;15.69;79.10
26531;BME280;14201;43.188;24.160;2022-10-01T04:13:34;99889.72;;;15.72;79.31
26531;BME280;14201;43.188;24.160;2022-10-01T04:16:00;99887.16;;;15.74;79.62
26531;BME280;14201;43.188;24.160;2022-10-01T04:18:26;99895.28;;;15.83;79.35
26531;BME280;14201;43.188;24.160;2022-10-01T04:20:52;99895.78;;;15.70;78.01
26531;BME280;14201;43.188;24.160;2022-10-01T04:23:17;99886.00;;;15.64;77.69
26531;BME280;14201;43.188;24.160;2022-10-01T04:25:43;99897.56;;;15.71;78.19
26531;BME280;14201;43.188;24.160;2022-10-01T04:28:10;99886.97;;;15.68;78.36
26531;BME280;14201;43.188;24.160;2022-10-01T04:30:38;99880.00;;;15.70;78.83
26531;BME280;14201;43.188;24.160;2022-10-01T04:33:05;99872.13;;;15.70;78.72
26531;BME280;14201;43.188;24.160;2022-10-01T04:35:32;99870.09;;;15.58;79.00
26531;BME280;14201;43.188;24.160;2022-10-01T04:38:03;99870.03;;;15.55;78.95
26531;BME280;14201;43.188;24.160;2022-10-01T04:40:31;99876.25;;;15.59;79.75
26531;BME280;14201;43.188;24.160;2022-10-01T04:42:57;99870.72;;;15.48;80.74
26531;BME280;14201;43.188;24.160;2022-10-01T04:45:23;99866.59;;;15.58;80.52
26531;BME280;14201;43.188;24.160;2022-10-01T04:47:50;99853.16;;;15.45;81.20
26531;BME280;14201;43.188;24.160;2022-10-01T04:50:16;99865.78;;;15.27;82.28
26531;BME280;14201;43.188;24.160;2022-10-01T04:52:43;99848.25;;;14.94;83.90
26531;BME280;14201;43.188;24.160;2022-10-01T04:55:09;99862.34;;;14.98;85.77
26531;BME280;14201;43.188;24.160;2022-10-01T04:57:36;99867.69;;;15.32;84.19
26531;BME280;14201;43.188;24.160;2022-10-01T05:00:04;99842.56;;;15.42;82.98
26531;BME280;14201;43.188;24.160;2022-10-01T05:02:30;99848.78;;;15.46;83.23
26531;BME280;14201;43.188;24.160;2022-10-01T05:04:59;99850.56;;;15.80;81.83
26531;BME280;14201;43.188;24.160;2022-10-01T05:07:29;99849.25;;;15.99;81.59
26531;BME280;14201;43.188;24.160;2022-10-01T05:09:55;99845.25;;;16.17;80.45
26531;BME280;14201;43.188;24.160;2022-10-01T05:12:21;99841.22;;;15.93;81.68
26531;BME280;14201;43.188;24.160;2022-10-01T05:14:53;99841.84;;;16.19;82.14
26531;BME280;14201;43.188;24.160;2022-10-01T05:17:19;99852.97;;;16.47;81.30
26531;BME280;14201;43.188;24.160;2022-10-01T05:19:46;99860.03;;;16.49;81.04
26531;BME280;14201;43.188;24.160;2022-10-01T05:22:12;99863.38;;;16.82;79.53
26531;BME280;14201;43.188;24.160;2022-10-01T05:24:39;99875.25;;;17.05;79.14
26531;BME280;14201;43.188;24.160;2022-10-01T05:27:05;99869.25;;;17.12;78.59
26531;BME280;14201;43.188;24.160;2022-10-01T05:29:38;99882.78;;;17.32;79.39
26531;BME280;14201;43.188;24.160;2022-10-01T05:32:09;99887.50;;;17.50;78.65
26531;BME280;14201;43.188;24.160;2022-10-01T05:34:36;99891.44;;;17.73;78.34
26531;BME280;14201;43.188;24.160;2022-10-01T05:37:03;99875.75;;;17.80;77.67
26531;BME280;14201;43.188;24.160;2022-10-01T05:39:29;99875.22;;;18.00;77.66
26531;BME280;14201;43.188;24.160;2022-10-01T05:41:56;99862.97;;;18.03;77.25
26531;BME280;14201;43.188;24.160;2022-10-01T05:44:22;99865.63;;;18.03;77.25
26531;BME280;14201;43.188;24.160;2022-10-01T05:46:48;99884.16;;;18.09;77.87
26531;BME280;14201;43.188;24.160;2022-10-01T05:49:15;99887.88;;;18.24;75.90
26531;BME280;14201;43.188;24.160;2022-10-01T05:51:42;99893.22;;;18.27;75.88
26531;BME280;14201;43.188;24.160;2022-10-01T05:54:09;99896.78;;;18.30;76.00
26531;BME280;14201;43.188;24.160;2022-10-01T05:56:35;99903.03;;;18.37;75.15
26531;BME280;14201;43.188;24.160;2022-10-01T05:59:01;99903.41;;;18.04;76.70
26531;BME280;14201;43.188;24.160;2022-10-01T06:01:27;99894.91;;;18.23;78.09
26531;BME280;14201;43.188;24.160;2022-10-01T06:03:53;99905.75;;;18.43;78.15
26531;BME280;14201;43.188;24.160;2022-10-01T06:06:22;99912.09;;;18.56;76.82
26531;BME280;14201;43.188;24.160;2022-10-01T06:08:48;99909.66;;;18.70;75.94
26531;BME280;14201;43.188;24.160;2022-10-01T06:11:14;99899.28;;;18.82;75.26
26531;BME280;14201;43.188;24.160;2022-10-01T06:13:41;99901.13;;;18.86;75.24
26531;BME280;14201;43.188;24.160;2022-10-01T06:16:10;99903.13;;;19.07;74.63
26531;BME280;14201;43.188;24.160;2022-10-01T06:18:36;99897.97;;;19.18;75.49
26531;BME280;14201;43.188;24.160;2022-10-01T06:21:02;99913.22;;;19.44;72.97
26531;BME280;14201;43.188;24.160;2022-10-01T06:23:28;99912.50;;;19.57;72.99
26531;BME280;14201;43.188;24.160;2022-10-01T06:25:53;99906.25;;;19.51;71.85
26531;BME280;14201;43.188;24.160;2022-10-01T06:28:19;99904.47;;;19.46;73.14
26531;BME280;14201;43.188;24.160;2022-10-01T06:30:45;99905.41;;;19.53;72.25
26531;BME280;14201;43.188;24.160;2022-10-01T06:33:12;99902.78;;;19.55;72.73
26531;BME280;14201;43.188;24.160;2022-10-01T06:35:43;99907.28;;;19.66;72.94
26531;BME280;14201;43.188;24.160;2022-10-01T06:38:10;99911.72;;;19.69;73.74
26531;BME280;14201;43.188;24.160;2022-10-01T06:40:36;99907.53;;;19.88;72.41
26531;BME280;14201;43.188;24.160;2022-10-01T06:43:02;99906.97;;;20.26;70.57
26531;BME280;14201;43.188;24.160;2022-10-01T06:45:29;99894.75;;;20.53;67.73
26531;BME280;14201;43.188;24.160;2022-10-01T06:47:57;99905.47;;;20.63;67.77
26531;BME280;14201;43.188;24.160;2022-10-01T06:50:24;99906.53;;;20.98;68.33
26531;BME280;14201;43.188;24.160;2022-10-01T06:52:51;99898.69;;;21.38;68.14
26531;BME280;14201;43.188;24.160;2022-10-01T06:55:22;99905.84;;;21.59;66.54
26531;BME280;14201;43.188;24.160;2022-10-01T06:57:58;99901.47;;;21.81;64.66
26531;BME280;14201;43.188;24.160;2022-10-01T07:00:26;99897.03;;;22.09;67.56
26531;BME280;14201;43.188;24.160;2022-10-01T07:02:53;99887.28;;;22.31;64.21
26531;BME280;14201;43.188;24.160;2022-10-01T07:05:20;99885.47;;;22.70;63.87
26531;BME280;14201;43.188;24.160;2022-10-01T07:07:46;99888.06;;;22.86;64.37
26531;BME280;14201;43.188;24.160;2022-10-01T07:10:14;99882.69;;;23.03;62.59
26531;BME280;14201;43.188;24.160;2022-10-01T07:12:40;99878.13;;;23.31;61.87
26531;BME280;14201;43.188;24.160;2022-10-01T07:15:07;99887.72;;;23.56;61.33
26531;BME280;14201;43.188;24.160;2022-10-01T07:17:42;99902.63;;;23.82;60.00
26531;BME280;14201;43.188;24.160;2022-10-01T07:20:09;99901.56;;;24.05;58.80
26531;BME280;14201;43.188;24.160;2022-10-01T07:22:35;99910.22;;;24.30;57.80
26531;BME280;14201;43.188;24.160;2022-10-01T07:25:01;99914.31;;;24.66;59.06
26531;BME280;14201;43.188;24.160;2022-10-01T07:27:27;99911.25;;;25.00;57.05
26531;BME280;14201;43.188;24.160;2022-10-01T07:29:52;99894.13;;;25.23;56.53
26531;BME280;14201;43.188;24.160;2022-10-01T07:32:18;99876.84;;;25.48;53.48
26531;BME280;14201;43.188;24.160;2022-10-01T07:34:45;99881.81;;;25.73;51.42
26531;BME280;14201;43.188;24.160;2022-10-01T07:37:11;99880.84;;;25.79;49.85
26531;BME280;14201;43.188;24.160;2022-10-01T07:39:36;99889.63;;;25.85;48.56
26531;BME280;14201;43.188;24.160;2022-10-01T07:42:03;99898.13;;;26.12;48.75
26531;BME280;14201;43.188;24.160;2022-10-01T07:44:29;99891.53;;;26.31;48.67
26531;BME280;14201;43.188;24.160;2022-10-01T07:46:55;99890.84;;;26.70;50.18
26531;BME280;14201;43.188;24.160;2022-10-01T07:49:22;99883.22;;;26.95;47.57
26531;BME280;14201;43.188;24.160;2022-10-01T07:51:51;99885.28;;;27.23;47.77
26531;BME280;14201;43.188;24.160;2022-10-01T07:54:19;99901.88;;;27.40;45.46
26531;BME280;14201;43.188;24.160;2022-10-01T07:56:49;99909.94;;;27.37;45.76
26531;BME280;14201;43.188;24.160;2022-10-01T07:59:23;99900.09;;;27.39;46.57
26531;BME280;14201;43.188;24.160;2022-10-01T08:01:51;99904.13;;;27.59;48.15
26531;BME280;14201;43.188;24.160;2022-10-01T08:04:20;99904.69;;;27.73;45.92
26531;BME280;14201;43.188;24.160;2022-10-01T08:07:05;99901.00;;;27.77;45.28
26531;BME280;14201;43.188;24.160;2022-10-01T08:09:32;99908.31;;;28.08;44.09
26531;BME280;14201;43.188;24.160;2022-10-01T08:11:58;99903.03;;;28.39;45.61
26531;BME280;14201;43.188;24.160;2022-10-01T08:14:23;99902.69;;;28.53;44.27
26531;BME280;14201;43.188;24.160;2022-10-01T08:16:50;99896.06;;;28.66;45.09
26531;BME280;14201;43.188;24.160;2022-10-01T08:19:16;99897.91;;;28.96;43.54
26531;BME280;14201;43.188;24.160;2022-10-01T08:21:42;99889.19;;;29.20;44.83
26531;BME280;14201;43.188;24.160;2022-10-01T08:24:08;99878.66;;;29.42;44.95
26531;BME280;14201;43.188;24.160;2022-10-01T08:26:34;99868.38;;;29.57;43.24
26531;BME280;14201;43.188;24.160;2022-10-01T08:28:59;99852.50;;;29.77;41.11
26531;BME280;14201;43.188;24.160;2022-10-01T08:31:25;99852.88;;;29.65;40.66
26531;BME280;14201;43.188;24.160;2022-10-01T08:33:52;99846.69;;;29.63;40.36
26531;BME280;14201;43.188;24.160;2022-10-01T08:36:18;99847.69;;;29.87;40.66
26531;BME280;14201;43.188;24.160;2022-10-01T08:38:45;99841.84;;;30.01;37.80
26531;BME280;14201;43.188;24.160;2022-10-01T08:41:40;99840.00;;;30.28;37.56
26531;BME280;14201;43.188;24.160;2022-10-01T08:44:17;99831.69;;;30.36;33.76
26531;BME280;14201;43.188;24.160;2022-10-01T08:46:45;99823.22;;;30.72;34.99
26531;BME280;14201;43.188;24.160;2022-10-01T08:49:28;99829.53;;;31.18;35.92
26531;BME280;14201;43.188;24.160;2022-10-01T08:52:01;99833.63;;;31.50;34.50
26531;BME280;14201;43.188;24.160;2022-10-01T08:54:47;99835.25;;;31.76;34.56
26531;BME280;14201;43.188;24.160;2022-10-01T08:57:20;99830.75;;;31.55;32.69
26531;BME280;14201;43.188;24.160;2022-10-01T09:02:25;99837.56;;;31.64;31.64
26531;BME280;14201;43.188;24.160;2022-10-01T09:04:57;99842.59;;;31.51;33.00
26531;BME280;14201;43.188;24.160;2022-10-01T09:10:45;99848.31;;;31.42;34.19
26531;BME280;14201;43.188;24.160;2022-10-01T09:21:24;99832.13;;;30.97;35.11
26531;BME280;14201;43.188;24.160;2022-10-01T09:23:56;99831.34;;;30.94;35.10
26531;BME280;14201;43.188;24.160;2022-10-01T09:26:25;99830.41;;;30.71;35.24
26531;BME280;14201;43.188;24.160;2022-10-01T09:28:52;99823.22;;;30.72;34.87
26531;BME280;14201;43.188;24.160;2022-10-01T09:31:24;99812.06;;;30.83;34.49
26531;BME280;14201;43.188;24.160;2022-10-01T09:34:02;99816.22;;;30.42;35.30
26531;BME280;14201;43.188;24.160;2022-10-01T09:36:58;99821.56;;;30.17;35.40
26531;BME280;14201;43.188;24.160;2022-10-01T09:39:37;99815.91;;;30.00;35.47
26531;BME280;14201;43.188;24.160;2022-10-01T09:42:06;99815.59;;;30.09;35.28
26531;BME280;14201;43.188;24.160;2022-10-01T09:44:32;99824.91;;;29.99;36.02
26531;BME280;14201;43.188;24.160;2022-10-01T09:46:58;99828.41;;;30.01;36.30
26531;BME280;14201;43.188;24.160;2022-10-01T09:49:28;99821.81;;;30.11;35.43
26531;BME280;14201;43.188;24.160;2022-10-01T09:52:03;99822.47;;;29.91;35.88
26531;BME280;14201;43.188;24.160;2022-10-01T09:54:52;99828.88;;;29.60;36.76
26531;BME280;14201;43.188;24.160;2022-10-01T09:59:49;99834.59;;;29.50;37.53
26531;BME280;14201;43.188;24.160;2022-10-01T10:02:22;99842.56;;;29.53;37.40
26531;BME280;14201;43.188;24.160;2022-10-01T10:07:46;99849.81;;;29.21;37.23
26531;BME280;14201;43.188;24.160;2022-10-01T10:10:27;99858.00;;;29.16;37.44
26531;BME280;14201;43.188;24.160;2022-10-01T10:13:13;99852.91;;;29.05;38.36
26531;BME280;14201;43.188;24.160;2022-10-01T10:15:52;99849.88;;;28.88;39.92
26531;BME280;14201;43.188;24.160;2022-10-01T10:18:29;99850.13;;;28.79;39.92
26531;BME280;14201;43.188;24.160;2022-10-01T10:21:01;99848.75;;;28.65;38.69
26531;BME280;14201;43.188;24.160;2022-10-01T10:23:31;99846.50;;;28.48;38.28
26531;BME280;14201;43.188;24.160;2022-10-01T10:26:04;99840.56;;;28.37;38.47
26531;BME280;14201;43.188;24.160;2022-10-01T10:28:40;99844.94;;;28.40;38.72
26531;BME280;14201;43.188;24.160;2022-10-01T10:31:19;99837.06;;;28.35;38.77
26531;BME280;14201;43.188;24.160;2022-10-01T10:36:35;99850.16;;;28.46;39.29
26531;BME280;14201;43.188;24.160;2022-10-01T10:39:03;99854.84;;;28.38;40.25
26531;BME280;14201;43.188;24.160;2022-10-01T10:41:31;99857.34;;;28.44;39.87
26531;BME280;14201;43.188;24.160;2022-10-01T10:44:03;99844.00;;;28.42;39.05
26531;BME280;14201;43.188;24.160;2022-10-01T10:46:33;99842.03;;;28.49;39.99
26531;BME280;14201;43.188;24.160;2022-10-01T10:49:27;99837.84;;;28.39;39.43
26531;BME280;14201;43.188;24.160;2022-10-01T10:51:55;99837.84;;;28.39;39.70
26531;BME280;14201;43.188;24.160;2022-10-01T10:56:51;99831.06;;;28.25;39.63
26531;BME280;14201;43.188;24.160;2022-10-01T10:59:17;99831.47;;;28.10;39.76
26531;BME280;14201;43.188;24.160;2022-10-01T11:01:43;99827.19;;;28.03;40.53
26531;BME280;14201;43.188;24.160;2022-10-01T11:04:40;99840.06;;;27.88;41.16
26531;BME280;14201;43.188;24.160;2022-10-01T11:07:08;99849.16;;;27.80;41.02
26531;BME280;14201;43.188;24.160;2022-10-01T11:12:54;99822.06;;;27.58;41.81
26531;BME280;14201;43.188;24.160;2022-10-01T11:15:23;99805.28;;;27.51;41.70
26531;BME280;14201;43.188;24.160;2022-10-01T11:28:49;99783.94;;;27.10;43.81
26531;BME280;14201;43.188;24.160;2022-10-01T11:31:35;99774.81;;;27.18;44.34
26531;BME280;14201;43.188;24.160;2022-10-01T11:36:58;99782.25;;;27.06;45.11
26531;BME280;14201;43.188;24.160;2022-10-01T11:39:28;99772.91;;;27.26;45.48
26531;BME280;14201;43.188;24.160;2022-10-01T11:42:06;99762.88;;;27.34;45.15
26531;BME280;14201;43.188;24.160;2022-10-01T11:44:40;99764.91;;;27.24;45.28
26531;BME280;14201;43.188;24.160;2022-10-01T11:47:17;99761.28;;;27.27;45.25
26531;BME280;14201;43.188;24.160;2022-10-01T11:52:52;99753.28;;;27.25;46.00
26531;BME280;14201;43.188;24.160;2022-10-01T11:55:26;99754.53;;;27.46;46.29
26531;BME280;14201;43.188;24.160;2022-10-01T12:06:29;99747.69;;;27.36;46.46
26531;BME280;14201;43.188;24.160;2022-10-01T12:09:13;99724.19;;;27.10;45.75
26531;BME280;14201;43.188;24.160;2022-10-01T12:12:03;99712.00;;;26.98;45.46
26531;BME280;14201;43.188;24.160;2022-10-01T12:14:41;99708.50;;;26.96;45.77
26531;BME280;14201;43.188;24.160;2022-10-01T12:17:25;99714.44;;;26.71;46.29
26531;BME280;14201;43.188;24.160;2022-10-01T12:19:54;99720.88;;;26.61;47.68
26531;BME280;14201;43.188;24.160;2022-10-01T12:22:27;99714.59;;;26.64;47.33
26531;BME280;14201;43.188;24.160;2022-10-01T12:24:55;99691.41;;;26.64;48.04
26531;BME280;14201;43.188;24.160;2022-10-01T12:27:30;99666.34;;;26.70;48.51
26531;BME280;14201;43.188;24.160;2022-10-01T12:35:56;99682.84;;;26.48;48.88
26531;BME280;14201;43.188;24.160;2022-10-01T12:41:34;99691.34;;;26.25;48.98
26531;BME280;14201;43.188;24.160;2022-10-01T12:52:46;99683.72;;;25.59;54.31
26531;BME280;14201;43.188;24.160;2022-10-01T12:57:48;99681.75;;;25.19;56.25
26531;BME280;14201;43.188;24.160;2022-10-01T13:00:22;99669.44;;;25.08;56.68
26531;BME280;14201;43.188;24.160;2022-10-01T13:13:15;99695.59;;;24.85;65.57
26531;BME280;14201;43.188;24.160;2022-10-01T13:15:46;99695.22;;;24.47;67.25
26531;BME280;14201;43.188;24.160;2022-10-01T13:23:43;99636.56;;;24.50;70.36
26531;BME280;14201;43.188;24.160;2022-10-01T13:26:18;99605.53;;;24.51;74.45
26531;BME280;14201;43.188;24.160;2022-10-01T13:31:15;99602.22;;;24.33;72.60
26531;BME280;14201;43.188;24.160;2022-10-01T13:33:52;99582.50;;;24.47;72.08
26531;BME280;14201;43.188;24.160;2022-10-01T13:36:28;99584.16;;;24.54;75.62
26531;BME280;14201;43.188;24.160;2022-10-01T13:38:55;99584.78;;;24.71;74.89
26531;BME280;14201;43.188;24.160;2022-10-01T13:41:24;99575.81;;;24.77;70.25
26531;BME280;14201;43.188;24.160;2022-10-01T13:43:54;99565.81;;;24.90;71.92
26531;BME280;14201;43.188;24.160;2022-10-01T13:46:29;99574.53;;;25.01;72.92
26531;BME280;14201;43.188;24.160;2022-10-01T13:49:05;99568.00;;;25.16;73.53
26531;BME280;14201;43.188;24.160;2022-10-01T13:51:42;99551.84;;;25.28;74.28
26531;BME280;14201;43.188;24.160;2022-10-01T13:54:21;99547.25;;;25.35;74.38
26531;BME280;14201;43.188;24.160;2022-10-01T13:56:48;99560.47;;;25.41;73.67
26531;BME280;14201;43.188;24.160;2022-10-01T13:59:34;99571.75;;;25.56;76.17
26531;BME280;14201;43.188;24.160;2022-10-01T14:02:00;99569.91;;;25.59;75.10
26531;BME280;14201;43.188;24.160;2022-10-01T14:07:14;99574.69;;;25.42;76.16
26531;BME280;14201;43.188;24.160;2022-10-01T14:09:44;99591.97;;;25.19;76.78
26531;BME280;14201;43.188;24.160;2022-10-01T14:12:15;99602.81;;;25.08;75.76
26531;BME280;14201;43.188;24.160;2022-10-01T14:15:10;99613.91;;;24.84;76.08
26531;BME280;14201;43.188;24.160;2022-10-01T14:17:56;99592.13;;;25.08;75.65
26531;BME280;14201;43.188;24.160;2022-10-01T14:20:30;99562.03;;;25.03;76.74
26531;BME280;14201;43.188;24.160;2022-10-01T14:25:42;99535.31;;;24.56;80.56
26531;BME280;14201;43.188;24.160;2022-10-01T14:31:26;99524.94;;;24.36;75.82
26531;BME280;14201;43.188;24.160;2022-10-01T14:36:39;99515.38;;;24.23;74.56
26531;BME280;14201;43.188;24.160;2022-10-01T14:39:24;99511.69;;;24.33;75.34
26531;BME280;14201;43.188;24.160;2022-10-01T14:41:52;99504.44;;;24.43;75.22
26531;BME280;14201;43.188;24.160;2022-10-01T14:44:30;99497.88;;;24.10;77.26
26531;BME280;14201;43.188;24.160;2022-10-01T14:47:28;99501.00;;;23.73;76.16
26531;BME280;14201;43.188;24.160;2022-10-01T14:50:08;99487.03;;;23.57;78.00
26531;BME280;14201;43.188;24.160;2022-10-01T14:52:34;99482.66;;;23.54;77.58
26531;BME280;14201;43.188;24.160;2022-10-01T14:55:05;99484.78;;;23.25;78.64
26531;BME280;14201;43.188;24.160;2022-10-01T14:57:47;99480.94;;;23.49;77.15
26531;BME280;14201;43.188;24.160;2022-10-01T15:00:20;99473.06;;;23.41;77.03
26531;BME280;14201;43.188;24.160;2022-10-01T15:02:48;99476.28;;;23.65;75.35